Time;durP1;ratioP1;P1;durP2;ratioP2;P2;SDS_P1;SDS_P2;PMS_P1;PMS_P2;Temp;Humidity;BMP_temperature;BMP_pressure;BME280_temperature;BME280_humidity;BME280_pressure;Samples;Min_cycle;Max_cycle;Signal;HPM_P1;HPM_P2
2023/08/29 00:00:05;;;;;;;0.82;0.82;;;;;;;17.29;72.06;98831.66;338601;28;4522;-76
2023/08/29 00:00:17;;;;;;;0.80;0.80;;;;;;;17.28;72.06;98825.53;333550;28;5606;-75
2023/08/29 00:00:29;;;;;;;0.73;0.73;;;;;;;17.28;72.08;98829.97;335750;28;18627;-74
2023/08/29 00:00:41;;;;;;;0.95;0.80;;;;;;;17.29;72.05;98829.03;337387;28;5315;-74
2023/08/29 00:00:53;;;;;;;1.00;0.82;;;;;;;17.29;72.05;98834.28;336464;28;5936;-73
2023/08/29 00:01:05;;;;;;;0.93;0.80;;;;;;;17.29;72.05;98826.41;336817;28;17791;-73
2023/08/29 00:01:17;;;;;;;0.75;0.73;;;;;;;17.28;71.95;98820.28;338436;28;4847;-73
2023/08/29 00:01:29;;;;;;;1.00;0.90;;;;;;;17.28;71.99;98819.44;336920;28;17895;-73
2023/08/29 00:01:44;;;;;;;1.00;0.90;;;;;;;17.28;71.93;98824.72;339498;28;5320;-76
2023/08/29 00:01:56;;;;;;;1.10;0.88;;;;;;;17.30;71.84;98828.06;335822;28;18365;-74
2023/08/29 00:02:08;;;;;;;1.27;0.90;;;;;;;17.30;72.30;98830.69;339455;28;4505;-73
2023/08/29 00:02:21;;;;;;;1.17;0.90;;;;;;;17.30;72.52;98830.69;337076;28;18201;-74
2023/08/29 00:02:40;;;;;;;2.75;0.90;;;;;;;17.30;72.67;98822.81;334896;28;11582;-74
2023/08/29 00:02:53;;;;;;;2.42;0.80;;;;;;;17.31;72.69;98829.75;335255;28;17714;-74
2023/08/29 00:03:05;;;;;;;0.73;0.73;;;;;;;17.31;72.59;98825.31;336026;28;16282;-74
2023/08/29 00:03:17;;;;;;;0.77;0.77;;;;;;;17.31;72.94;98824.50;338297;28;4474;-74
2023/08/29 00:03:31;;;;;;;0.80;0.80;;;;;;;17.32;72.71;98826.97;338940;28;4553;-78
2023/08/29 00:03:43;;;;;;;0.80;0.80;;;;;;;17.36;72.89;98830.22;335081;28;18128;-75
2023/08/29 00:03:58;;;;;;;1.30;0.82;;;;;;;17.36;72.48;98828.47;334960;28;4681;-74
2023/08/29 00:04:10;;;;;;;1.35;0.90;;;;;;;17.37;72.45;98818.78;334335;28;16313;-76
2023/08/29 00:04:22;;;;;;;1.80;1.00;;;;;;;17.40;72.40;98823.81;337470;28;4969;-77
2023/08/29 00:04:34;;;;;;;2.10;1.00;;;;;;;17.42;72.42;98831.56;331830;28;4708;-77
2023/08/29 00:04:46;;;;;;;2.23;0.90;;;;;;;17.42;72.27;98826.31;335738;28;16598;-76
2023/08/29 00:04:58;;;;;;;1.53;0.93;;;;;;;17.40;72.60;98828.22;338407;28;4670;-76
2023/08/29 00:05:12;;;;;;;1.63;1.00;;;;;;;17.41;73.03;98825.50;334212;28;18089;-77
2023/08/29 00:05:27;;;;;;;1.00;0.90;;;;;;;17.44;72.92;98830.50;337354;28;4713;-76
2023/08/29 00:05:39;;;;;;;2.30;0.90;;;;;;;17.45;72.43;98826.94;336501;28;18441;-77
2023/08/29 00:05:51;;;;;;;2.20;0.90;;;;;;;17.45;72.51;98826.94;334717;28;18137;-77
2023/08/29 00:06:04;;;;;;;2.00;0.80;;;;;;;17.47;72.41;98829.47;339456;28;4579;-77
2023/08/29 00:06:17;;;;;;;0.85;0.85;;;;;;;17.47;72.93;98829.47;337167;28;18101;-75
2023/08/29 00:06:29;;;;;;;0.93;0.90;;;;;;;17.48;72.63;98831.13;339912;28;4505;-74
2023/08/29 00:06:42;;;;;;;0.95;0.85;;;;;;;17.48;72.38;98829.31;340034;28;18017;-75
2023/08/29 00:06:54;;;;;;;1.70;1.10;;;;;;;17.49;72.46;98828.38;337392;28;17649;-76
2023/08/29 00:07:06;;;;;;;1.65;1.15;;;;;;;17.50;72.54;98830.03;337431;28;18288;-76
2023/08/29 00:07:18;;;;;;;1.50;0.90;;;;;;;17.51;72.85;98830.91;340337;28;5205;-76
2023/08/29 00:07:30;;;;;;;1.05;0.65;;;;;;;17.52;72.50;98825.50;340599;28;6339;-75
2023/08/29 00:07:42;;;;;;;1.00;0.70;;;;;;;17.50;72.54;98830.03;335799;28;17929;-75
2023/08/29 00:07:54;;;;;;;0.75;0.75;;;;;;;17.51;72.44;98826.47;336165;28;16653;-75
2023/08/29 00:08:06;;;;;;;0.73;0.73;;;;;;;17.52;72.32;98832.56;339363;28;5623;-75
2023/08/29 00:08:18;;;;;;;0.70;0.70;;;;;;;17.52;72.08;98828.13;336752;28;17874;-75
2023/08/29 00:08:33;;;;;;;0.77;0.70;;;;;;;17.53;72.01;98832.47;339475;28;4508;-75
2023/08/29 00:08:45;;;;;;;0.90;0.80;;;;;;;17.54;72.07;98834.13;336216;28;18199;-76
2023/08/29 00:08:57;;;;;;;0.80;0.80;;;;;;;17.51;72.15;98829.09;336153;28;5695;-75
2023/08/29 00:09:09;;;;;;;0.82;0.80;;;;;;;17.50;72.45;98835.28;339068;28;6086;-75
2023/08/29 00:09:21;;;;;;;0.90;0.73;;;;;;;17.51;72.58;98831.72;339684;28;4571;-76
2023/08/29 00:09:33;;;;;;;1.20;0.90;;;;;;;17.49;72.75;98838.91;337474;28;5599;-75
2023/08/29 00:09:45;;;;;;;1.13;0.90;;;;;;;17.51;72.75;98837.00;339062;28;6436;-75
2023/08/29 00:09:57;;;;;;;1.08;0.90;;;;;;;17.50;72.79;98835.28;337079;28;6427;-75
2023/08/29 00:10:09;;;;;;;0.85;0.80;;;;;;;17.51;72.85;98842.25;337867;28;17205;-75
2023/08/29 00:10:22;;;;;;;0.80;0.80;;;;;;;17.52;72.91;98833.41;340046;28;5286;-76
2023/08/29 00:10:34;;;;;;;0.70;0.70;;;;;;;17.51;73.19;98836.16;337502;28;18307;-75
2023/08/29 00:10:46;;;;;;;0.70;0.70;;;;;;;17.52;72.95;98843.91;339106;28;5015;-77
2023/08/29 00:10:59;;;;;;;0.98;0.90;;;;;;;17.53;72.96;98839.50;335480;28;5382;-77
2023/08/29 00:11:11;;;;;;;1.23;0.93;;;;;;;17.52;73.23;98838.66;334923;28;18702;-75
2023/08/29 00:11:22;;;;;;;1.10;0.90;;;;;;;17.52;73.33;98837.81;338657;28;5289;-76
2023/08/29 00:11:35;;;;;;;0.82;0.80;;;;;;;17.53;73.44;98839.50;337206;28;17905;-76
2023/08/29 00:11:47;;;;;;;0.77;0.70;;;;;;;17.54;73.09;98847.25;339103;28;4521;-77
2023/08/29 00:12:00;;;;;;;1.30;0.80;;;;;;;17.54;72.89;98842.00;336260;28;18135;-77
2023/08/29 00:12:12;;;;;;;3.10;0.80;;;;;;;17.55;72.98;98843.69;338461;28;4678;-74
2023/08/29 00:12:24;;;;;;;3.08;0.85;;;;;;;17.55;72.87;98838.44;335927;28;12952;-74
2023/08/29 00:12:36;;;;;;;2.85;0.95;;;;;;;17.55;72.58;98842.88;338533;28;4712;-76
2023/08/29 00:12:48;;;;;;;1.50;0.98;;;;;;;17.52;73.60;98843.91;337887;28;11556;-74
2023/08/29 00:13:00;;;;;;;0.95;0.90;;;;;;;17.54;73.26;98841.16;335668;28;17275;-74
2023/08/29 00:13:12;;;;;;;1.00;0.90;;;;;;;17.56;73.03;98845.34;338455;28;4496;-76
2023/08/29 00:13:25;;;;;;;0.95;0.80;;;;;;;17.56;73.00;98850.59;335951;28;17916;-75
2023/08/29 00:13:37;;;;;;;1.00;0.90;;;;;;;17.56;73.22;98841.91;338256;28;5299;-75
2023/08/29 00:13:52;;;;;;;1.48;0.93;;;;;;;17.58;73.09;98851.34;337086;28;5188;-75
2023/08/29 00:14:05;;;;;;;1.45;1.00;;;;;;;17.60;72.92;98850.41;338767;28;17844;-75
2023/08/29 00:14:17;;;;;;;1.42;1.10;;;;;;;17.61;73.01;98844.19;337113;28;18950;-75
2023/08/29 00:14:29;;;;;;;1.65;1.08;;;;;;;17.62;72.69;98849.31;338808;28;4531;-75
2023/08/29 00:14:44;;;;;;;1.20;1.00;;;;;;;17.62;72.84;98840.59;335929;28;18011;-76
2023/08/29 00:14:56;;;;;;;1.00;0.90;;;;;;;17.63;72.63;98840.50;336625;28;18011;-75
2023/08/29 00:15:10;;;;;;;0.80;0.80;;;;;;;17.64;72.60;98846.59;341047;28;4604;-77
2023/08/29 00:15:22;;;;;;;1.02;0.80;;;;;;;17.64;72.39;98857.09;338585;28;18289;-77
2023/08/29 00:15:34;;;;;;;1.13;0.93;;;;;;;17.65;72.57;98843.03;338883;28;4523;-78
2023/08/29 00:15:46;;;;;;;1.20;1.00;;;;;;;17.67;72.21;98846.38;336681;28;18151;-73
2023/08/29 00:15:58;;;;;;;1.05;0.90;;;;;;;17.65;71.91;98848.28;340069;28;4660;-74
2023/08/29 00:16:16;;;;;;;1.10;0.87;;;;;;;17.65;72.00;98853.53;337717;28;17575;-73
2023/08/29 00:16:28;;;;;;;1.17;0.95;;;;;;;17.64;71.89;98851.84;337495;28;17592;-77
2023/08/29 00:16:41;;;;;;;1.30;0.98;;;;;;;17.64;72.10;98851.84;337392;28;10960;-76
2023/08/29 00:16:53;;;;;;;1.23;0.90;;;;;;;17.65;72.00;98853.53;335047;28;4611;-76
2023/08/29 00:17:05;;;;;;;1.33;0.90;;;;;;;17.65;72.13;98854.34;339367;28;4576;-75
2023/08/29 00:17:18;;;;;;;1.05;0.90;;;;;;;17.66;72.75;98860.44;337355;28;17970;-74
2023/08/29 00:17:30;;;;;;;0.80;0.80;;;;;;;17.64;72.52;98854.47;340422;28;4793;-77
2023/08/29 00:17:43;;;;;;;1.75;0.75;;;;;;;17.67;72.61;98856.88;336868;28;18009;-76
2023/08/29 00:17:55;;;;;;;2.00;0.90;;;;;;;17.64;72.71;98854.47;336511;28;11419;-78
2023/08/29 00:18:08;;;;;;;1.92;0.93;;;;;;;17.63;73.07;98860.69;333530;28;5778;-76
2023/08/29 00:18:21;;;;;;;1.08;0.90;;;;;;;17.63;73.36;98858.06;336125;28;15999;-77
2023/08/29 00:18:33;;;;;;;1.25;0.98;;;;;;;17.63;72.97;98852.81;338700;28;4658;-77
2023/08/29 00:18:45;;;;;;;1.10;0.85;;;;;;;17.64;72.86;98857.09;336060;28;11585;-78
2023/08/29 00:18:57;;;;;;;1.27;0.90;;;;;;;17.64;72.76;98851.84;338683;28;4495;-77
2023/08/29 00:19:09;;;;;;;2.00;0.88;;;;;;;17.64;72.30;98857.09;338675;28;5288;-75
2023/08/29 00:19:22;;;;;;;2.10;0.90;;;;;;;17.64;72.59;98857.94;335923;28;17764;-74
2023/08/29 00:19:34;;;;;;;1.17;0.80;;;;;;;17.65;72.46;98861.41;338304;28;4547;-75
2023/08/29 00:19:46;;;;;;;1.00;0.80;;;;;;;17.67;72.09;98862.13;333415;28;4764;-73
2023/08/29 00:19:58;;;;;;;0.93;0.77;;;;;;;17.66;72.17;98860.44;336092;28;18284;-74
2023/08/29 00:20:10;;;;;;;0.98;0.80;;;;;;;17.67;72.05;98854.25;339788;28;4522;-74
2023/08/29 00:20:22;;;;;;;1.13;0.70;;;;;;;17.65;72.71;98858.78;336947;28;4830;-74
2023/08/29 00:20:34;;;;;;;1.05;0.70;;;;;;;17.64;72.94;98862.34;339871;28;5473;-74
2023/08/29 00:20:46;;;;;;;1.25;0.80;;;;;;;17.64;72.67;98859.72;337620;28;4632;-74
2023/08/29 00:20:58;;;;;;;1.10;0.90;;;;;;;17.66;72.51;98861.28;336879;28;17637;-76
2023/08/29 00:21:10;;;;;;;1.70;0.98;;;;;;;17.66;72.31;98870.97;338227;28;4493;-75
2023/08/29 00:21:22;;;;;;;1.70;1.00;;;;;;;17.67;72.66;98862.13;336439;28;4666;-75
2023/08/29 00:21:34;;;;;;;1.25;0.93;;;;;;;17.65;72.79;98857.00;339714;28;4644;-75
2023/08/29 00:21:47;;;;;;;1.05;0.95;;;;;;;17.67;73.10;98864.75;336541;28;11639;-75
2023/08/29 00:21:59;;;;;;;1.00;0.90;;;;;;;17.67;72.96;98862.13;339056;28;5276;-75
2023/08/29 00:22:11;;;;;;;1.00;0.90;;;;;;;17.66;73.58;98866.53;340085;28;4489;-75
2023/08/29 00:22:23;;;;;;;1.10;1.00;;;;;;;17.67;73.18;98875.28;337165;28;17814;-75
2023/08/29 00:22:35;;;;;;;0.95;0.90;;;;;;;17.66;72.98;98866.53;339785;28;5066;-75
2023/08/29 00:22:47;;;;;;;1.90;0.95;;;;;;;17.64;72.85;98864.97;334604;28;5446;-75
2023/08/29 00:22:59;;;;;;;1.90;0.90;;;;;;;17.64;72.81;98868.44;336682;28;18020;-75
2023/08/29 00:23:11;;;;;;;1.90;0.90;;;;;;;17.66;72.60;98871.78;339548;28;5349;-75
2023/08/29 00:23:23;;;;;;;0.73;0.70;;;;;;;17.67;72.63;98873.47;337553;28;18464;-75
2023/08/29 00:23:35;;;;;;;0.80;0.75;;;;;;;17.68;72.50;98863.78;339589;28;5200;-75
2023/08/29 00:23:48;;;;;;;0.90;0.75;;;;;;;17.68;72.53;98864.63;336591;28;10406;-75
2023/08/29 00:24:00;;;;;;;0.88;0.80;;;;;;;17.69;73.03;98870.75;340319;28;4461;-76
2023/08/29 00:24:12;;;;;;;0.80;0.70;;;;;;;17.68;72.88;98869.06;340019;28;4586;-75
2023/08/29 00:24:26;;;;;;;0.93;0.80;;;;;;;17.70;72.79;98872.41;337691;28;18246;-73
2023/08/29 00:24:38;;;;;;;1.00;0.90;;;;;;;17.68;73.00;98869.88;337564;28;11853;-73
2023/08/29 00:24:52;;;;;;;1.13;1.00;;;;;;;17.68;73.27;98866.44;339631;28;4494;-74
2023/08/29 00:25:04;;;;;;;1.25;1.10;;;;;;;17.69;73.07;98870.75;336726;28;17922;-74
2023/08/29 00:25:16;;;;;;;1.23;1.00;;;;;;;17.70;72.85;98867.16;336373;28;6308;-76
2023/08/29 00:25:28;;;;;;;1.60;0.95;;;;;;;17.69;72.38;98865.50;339567;28;4514;-74
2023/08/29 00:25:40;;;;;;;1.50;0.98;;;;;;;17.69;72.63;98866.31;331617;28;17803;-75
2023/08/29 00:25:52;;;;;;;1.60;0.90;;;;;;;17.69;72.52;98868.13;339231;28;5894;-74
2023/08/29 00:26:04;;;;;;;1.02;0.93;;;;;;;17.70;72.66;98861.91;335701;28;18141;-75
2023/08/29 00:26:16;;;;;;;1.08;0.93;;;;;;;17.72;72.70;98870.50;338708;28;4936;-75
2023/08/29 00:26:29;;;;;;;1.25;1.00;;;;;;;17.72;72.51;98865.25;336878;28;10518;-75
2023/08/29 00:26:41;;;;;;;1.52;0.98;;;;;;;17.73;72.90;98861.69;339331;28;5766;-75
2023/08/29 00:26:53;;;;;;;1.50;0.90;;;;;;;17.74;72.50;98858.91;339618;28;4657;-75
2023/08/29 00:27:05;;;;;;;1.40;1.00;;;;;;;17.74;72.05;98858.91;336793;28;18074;-75
2023/08/29 00:27:18;;;;;;;1.20;1.00;;;;;;;17.75;72.05;98859.78;335004;28;5542;-75
2023/08/29 00:27:30;;;;;;;1.08;0.98;;;;;;;17.71;71.56;98863.59;337028;28;16434;-74
2023/08/29 00:27:42;;;;;;;1.30;1.02;;;;;;;17.73;71.68;98862.50;339538;28;4546;-73
2023/08/29 00:27:54;;;;;;;1.40;1.10;;;;;;;17.72;71.34;98855.56;339638;28;4803;-73
2023/08/29 00:28:07;;;;;;;1.17;1.00;;;;;;;17.71;71.05;98853.06;335590;28;18936;-74
2023/08/29 00:28:19;;;;;;;1.27;1.17;;;;;;;17.71;71.73;98863.59;338296;28;4561;-76
2023/08/29 00:28:31;;;;;;;1.25;1.15;;;;;;;17.68;72.05;98858.53;335305;28;18204;-76
2023/08/29 00:28:43;;;;;;;1.20;1.10;;;;;;;17.65;72.04;98856.16;338191;28;4786;-75
2023/08/29 00:28:55;;;;;;;1.00;0.90;;;;;;;17.66;71.81;98863.06;333797;28;4531;-75
2023/08/29 00:29:07;;;;;;;0.82;0.82;;;;;;;17.67;72.22;98862.13;336684;28;18421;-75
2023/08/29 00:29:19;;;;;;;1.02;0.93;;;;;;;17.68;72.22;98855.91;339804;28;5228;-76
2023/08/29 00:29:31;;;;;;;1.10;1.00;;;;;;;17.69;71.90;98860.22;336752;28;16655;-75
2023/08/29 00:29:43;;;;;;;1.00;0.90;;;;;;;17.71;71.79;98853.91;339348;28;5173;-75
2023/08/29 00:29:55;;;;;;;1.20;0.90;;;;;;;17.73;71.60;98856.44;339438;28;4695;-76
2023/08/29 00:30:07;;;;;;;1.42;0.80;;;;;;;17.74;71.35;98855.44;332646;28;18072;-75
2023/08/29 00:30:19;;;;;;;1.60;0.80;;;;;;;17.73;71.56;98856.44;339557;28;4512;-75
2023/08/29 00:30:39;;;;;;;1.17;0.90;;;;;;;17.73;71.66;98856.44;334523;28;17941;-74
2023/08/29 00:30:55;;;;;;;1.17;0.95;;;;;;;17.75;71.02;98859.78;337241;28;16944;-74
2023/08/29 00:31:07;;;;;;;1.10;0.85;;;;;;;17.75;70.80;98851.88;336361;28;17080;-76
2023/08/29 00:31:20;;;;;;;1.00;0.73;;;;;;;17.74;70.76;98853.66;337078;28;4713;-77
2023/08/29 00:31:32;;;;;;;1.27;0.90;;;;;;;17.74;70.90;98855.44;335954;28;17804;-77
2023/08/29 00:31:44;;;;;;;1.35;1.00;;;;;;;17.74;71.07;98851.03;338655;28;5147;-75
2023/08/29 00:31:56;;;;;;;1.00;0.82;;;;;;;17.75;71.03;98852.72;333603;28;16231;-75
2023/08/29 00:32:09;;;;;;;1.00;0.80;;;;;;;17.76;71.22;98856.19;337238;28;5069;-76
2023/08/29 00:32:21;;;;;;;0.73;0.70;;;;;;;17.76;70.66;98858.81;334482;28;18331;-75
2023/08/29 00:32:33;;;;;;;0.80;0.80;;;;;;;17.73;70.52;98851.16;338477;28;5342;-74
2023/08/29 00:32:45;;;;;;;1.27;0.90;;;;;;;17.69;70.39;98845.28;337763;28;12046;-74
2023/08/29 00:32:57;;;;;;;1.85;0.95;;;;;;;17.68;70.57;98853.28;334816;28;17828;-74
2023/08/29 00:33:11;;;;;;;2.10;1.00;;;;;;;17.68;70.42;98854.13;331732;28;4694;-76
2023/08/29 00:33:24;;;;;;;1.90;1.00;;;;;;;17.65;70.93;98853.53;333711;28;17778;-75
2023/08/29 00:33:36;;;;;;;0.93;0.90;;;;;;;17.62;71.13;98848.50;337747;28;5630;-75
2023/08/29 00:33:48;;;;;;;0.90;0.90;;;;;;;17.60;71.25;98859.09;335718;28;18540;-75
2023/08/29 00:34:01;;;;;;;0.80;0.80;;;;;;;17.60;71.15;98855.66;338821;28;4575;-75
2023/08/29 00:34:13;;;;;;;0.82;0.82;;;;;;;17.60;71.60;98845.97;336783;28;18759;-75
2023/08/29 00:34:25;;;;;;;0.73;0.73;;;;;;;17.63;71.47;98850.19;339805;28;5290;-76
2023/08/29 00:34:37;;;;;;;1.30;0.80;;;;;;;17.64;71.34;98846.59;335362;28;18240;-77
2023/08/29 00:34:49;;;;;;;1.40;0.85;;;;;;;17.63;71.45;98852.81;337242;28;4862;-77
2023/08/29 00:35:01;;;;;;;1.02;1.00;;;;;;;17.64;71.53;98849.22;335809;28;11459;-77
2023/08/29 00:35:13;;;;;;;1.00;1.00;;;;;;;17.64;71.50;98852.66;338087;28;5479;-75
2023/08/29 00:35:25;;;;;;;0.98;0.90;;;;;;;17.66;71.50;98845.50;338227;28;4677;-75
2023/08/29 00:35:37;;;;;;;1.20;1.00;;;;;;;17.67;71.48;98846.38;335459;28;19092;-75
2023/08/29 00:35:49;;;;;;;1.92;1.05;;;;;;;17.70;71.47;98848.75;338047;28;4580;-75
2023/08/29 00:36:02;;;;;;;1.60;0.90;;;;;;;17.71;71.34;98847.81;334063;28;4660;-77
2023/08/29 00:36:14;;;;;;;1.00;0.80;;;;;;;17.73;71.15;98852.00;334840;28;18271;-77
2023/08/29 00:36:26;;;;;;;1.00;0.80;;;;;;;17.75;70.87;98849.25;338203;28;5419;-77
2023/08/29 00:36:38;;;;;;;1.00;0.70;;;;;;;17.74;70.78;98848.41;335378;28;11029;-77
2023/08/29 00:36:51;;;;;;;0.77;0.70;;;;;;;17.74;70.54;98847.56;339974;28;5007;-76
2023/08/29 00:37:04;;;;;;;0.90;0.90;;;;;;;17.74;71.03;98847.56;336889;28;18318;-77
2023/08/29 00:37:16;;;;;;;1.00;0.90;;;;;;;17.73;70.76;98843.28;338614;28;5472;-77
2023/08/29 00:37:28;;;;;;;1.05;0.90;;;;;;;17.72;71.30;98846.84;334713;28;18330;-77
2023/08/29 00:37:40;;;;;;;1.20;0.90;;;;;;;17.69;71.78;98845.28;340294;28;5221;-77
2023/08/29 00:37:52;;;;;;;1.40;1.00;;;;;;;17.69;71.41;98847.09;339072;28;4511;-77
2023/08/29 00:38:04;;;;;;;1.30;1.10;;;;;;;17.68;71.22;98846.22;337471;28;17676;-77
2023/08/29 00:38:17;;;;;;;1.10;0.98;;;;;;;17.67;71.23;98841.13;339882;28;5407;-76
2023/08/29 00:38:29;;;;;;;1.00;0.90;;;;;;;17.68;71.00;98848.03;336325;28;17859;-75
2023/08/29 00:38:41;;;;;;;1.08;0.90;;;;;;;17.65;70.78;98843.03;338295;28;5281;-76
2023/08/29 00:38:53;;;;;;;1.00;0.90;;;;;;;17.64;71.03;98847.41;338467;28;4511;-75
2023/08/29 00:39:05;;;;;;;2.08;0.80;;;;;;;17.65;71.34;98845.66;335197;28;16623;-75
2023/08/29 00:39:17;;;;;;;2.00;0.70;;;;;;;17.67;71.65;98855.09;338501;28;4687;-76
2023/08/29 00:39:29;;;;;;;1.90;0.70;;;;;;;17.67;71.56;98847.19;337027;28;19579;-75
2023/08/29 00:39:41;;;;;;;0.82;0.77;;;;;;;17.69;71.56;98845.28;340463;28;4485;-76
2023/08/29 00:39:53;;;;;;;0.90;0.80;;;;;;;17.71;71.56;98847.81;341447;28;4503;-76
2023/08/29 00:40:06;;;;;;;0.88;0.77;;;;;;;17.74;71.56;98847.56;339448;28;18032;-77
2023/08/29 00:40:18;;;;;;;0.90;0.77;;;;;;;17.72;70.53;98846.84;334104;28;11557;-78
2023/08/29 00:40:31;;;;;;;1.20;1.00;;;;;;;17.74;70.85;98851.03;341409;28;4593;-77
2023/08/29 00:40:43;;;;;;;1.20;1.00;;;;;;;17.76;70.63;98850.91;341145;28;11105;-77
2023/08/29 00:40:55;;;;;;;0.95;0.82;;;;;;;17.76;70.32;98850.91;337199;28;19092;-77
2023/08/29 00:41:07;;;;;;;0.80;0.80;;;;;;;17.75;70.11;98851.88;342478;28;5437;-78
2023/08/29 00:41:19;;;;;;;0.80;0.80;;;;;;;17.71;69.92;98850.44;336788;28;17921;-76
2023/08/29 00:41:31;;;;;;;1.00;0.90;;;;;;;17.70;70.14;98852.22;340482;28;6624;-77
2023/08/29 00:41:48;;;;;;;1.38;1.10;;;;;;;17.69;70.13;98853.19;339373;28;4488;-75
2023/08/29 00:42:00;;;;;;;1.25;1.05;;;;;;;17.65;70.17;98858.78;335665;28;18510;-77
2023/08/29 00:42:12;;;;;;;0.95;0.80;;;;;;;17.61;70.18;98857.34;338695;28;4461;-75
2023/08/29 00:42:24;;;;;;;1.00;0.90;;;;;;;17.58;70.23;98856.59;338559;28;5774;-75
2023/08/29 00:42:36;;;;;;;1.10;0.90;;;;;;;17.57;70.19;98852.31;335666;28;17970;-75
2023/08/29 00:42:48;;;;;;;1.00;0.80;;;;;;;17.57;70.21;98847.03;338791;28;5136;-75
2023/08/29 00:43:02;;;;;;;0.98;0.85;;;;;;;17.58;70.36;98856.59;334721;28;18085;-75
2023/08/29 00:43:14;;;;;;;1.35;0.90;;;;;;;17.57;70.33;98857.56;334951;28;11706;-73
2023/08/29 00:43:26;;;;;;;1.88;0.90;;;;;;;17.57;70.26;98854.94;337611;28;5192;-74
2023/08/29 00:43:38;;;;;;;1.80;0.90;;;;;;;17.55;70.47;98856.84;338383;28;4630;-74
2023/08/29 00:43:51;;;;;;;0.85;0.80;;;;;;;17.54;70.39;98854.31;335778;28;18261;-76
2023/08/29 00:44:03;;;;;;;1.25;0.93;;;;;;;17.51;70.61;98854.56;339557;28;5993;-74
2023/08/29 00:44:17;;;;;;;1.55;1.00;;;;;;;17.49;70.63;98854.66;336109;28;17900;-73
2023/08/29 00:44:29;;;;;;;1.50;0.93;;;;;;;17.49;70.52;98857.28;331905;28;6460;-74
2023/08/29 00:44:41;;;;;;;1.48;0.95;;;;;;;17.48;70.78;98863.47;336041;28;18158;-75
2023/08/29 00:44:53;;;;;;;1.02;0.82;;;;;;;17.47;70.87;98853.94;334073;28;4859;-74
2023/08/29 00:45:06;;;;;;;0.75;0.75;;;;;;;17.46;70.94;98857.50;337511;28;12508;-74
2023/08/29 00:45:18;;;;;;;1.10;0.90;;;;;;;17.47;70.96;98855.72;339028;28;5051;-74
2023/08/29 00:45:32;;;;;;;1.13;0.90;;;;;;;17.45;70.91;98855.84;340366;28;5292;-74
2023/08/29 00:45:45;;;;;;;1.10;1.00;;;;;;;17.40;71.22;98855.31;334329;28;18186;-76
2023/08/29 00:45:58;;;;;;;1.30;1.20;;;;;;;17.33;71.39;98862.00;332756;28;18039;-77
2023/08/29 00:46:10;;;;;;;1.38;1.10;;;;;;;17.32;71.35;98855.06;337871;28;11577;-77
2023/08/29 00:46:23;;;;;;;1.10;0.88;;;;;;;17.29;71.51;98856.13;339742;28;4974;-77
2023/08/29 00:46:36;;;;;;;1.00;0.90;;;;;;;17.30;71.46;98854.31;337181;28;5731;-74
2023/08/29 00:46:49;;;;;;;0.85;0.85;;;;;;;17.30;71.52;98851.69;339069;28;4555;-75
2023/08/29 00:47:03;;;;;;;0.90;0.90;;;;;;;17.32;71.38;98857.69;336298;28;12213;-74
2023/08/29 00:47:17;;;;;;;0.95;0.88;;;;;;;17.32;71.58;98860.31;337108;28;16072;-75
2023/08/29 00:47:29;;;;;;;0.70;0.70;;;;;;;17.33;71.36;98849.69;333990;28;5529;-75
2023/08/29 00:47:41;;;;;;;0.80;0.80;;;;;;;17.34;71.46;98855.78;337996;28;5085;-73
2023/08/29 00:47:54;;;;;;;0.85;0.85;;;;;;;17.36;71.60;98861.75;338171;28;17661;-77
2023/08/29 00:48:08;;;;;;;0.88;0.88;;;;;;;17.37;71.62;98855.56;339727;28;5257;-74
2023/08/29 00:48:21;;;;;;;0.75;0.75;;;;;;;17.35;71.61;98857.47;336121;28;18118;-74
2023/08/29 00:48:33;;;;;;;0.93;0.88;;;;;;;17.35;71.64;98862.72;337093;28;18088;-74
2023/08/29 00:48:46;;;;;;;1.10;1.00;;;;;;;17.32;71.71;98855.06;338904;28;4859;-76
2023/08/29 00:48:58;;;;;;;1.10;1.00;;;;;;;17.31;71.46;98851.59;334534;28;18530;-75
2023/08/29 00:49:11;;;;;;;1.60;0.90;;;;;;;17.32;71.63;98857.69;337069;28;5531;-75
2023/08/29 00:49:27;;;;;;;1.70;0.98;;;;;;;17.32;71.75;98853.25;333511;28;17703;-76
2023/08/29 00:49:40;;;;;;;1.25;1.00;;;;;;;17.31;71.53;98856.84;332251;28;17831;-74
2023/08/29 00:49:53;;;;;;;1.02;0.90;;;;;;;17.31;71.70;98856.00;332661;28;11547;-75
2023/08/29 00:50:07;;;;;;;1.40;1.00;;;;;;;17.32;71.38;98860.31;335547;28;5448;-75
2023/08/29 00:50:19;;;;;;;1.60;1.02;;;;;;;17.34;71.32;98858.41;332454;28;17947;-75
2023/08/29 00:50:33;;;;;;;1.60;1.00;;;;;;;17.32;71.64;98852.44;332343;28;4509;-75
2023/08/29 00:50:45;;;;;;;1.15;0.98;;;;;;;17.31;71.48;98859.47;334390;28;16542;-74
2023/08/29 00:50:58;;;;;;;1.23;0.95;;;;;;;17.31;71.45;98856.00;335194;28;5219;-73
2023/08/29 00:51:10;;;;;;;1.70;1.00;;;;;;;17.31;71.56;98856.84;338497;28;5264;-75
2023/08/29 00:51:22;;;;;;;1.65;1.00;;;;;;;17.32;71.83;98857.69;338605;28;5727;-74
2023/08/29 00:51:34;;;;;;;1.20;1.10;;;;;;;17.34;71.49;98858.41;336639;28;18200;-75
2023/08/29 00:51:47;;;;;;;1.67;1.02;;;;;;;17.34;71.78;98861.03;339062;28;4837;-74
2023/08/29 00:52:02;;;;;;;1.60;1.00;;;;;;;17.36;71.97;98859.13;338522;28;18068;-74
2023/08/29 00:52:14;;;;;;;1.13;0.90;;;;;;;17.36;72.11;98859.13;336667;28;18778;-75
2023/08/29 00:52:26;;;;;;;1.20;1.10;;;;;;;17.39;72.15;98858.09;338659;28;4626;-76
2023/08/29 00:52:38;;;;;;;1.25;1.10;;;;;;;17.40;72.31;98855.31;339359;28;4500;-75
2023/08/29 00:52:54;;;;;;;1.17;1.08;;;;;;;17.42;72.20;98858.66;334776;28;17918;-74
2023/08/29 00:53:07;;;;;;;1.05;0.90;;;;;;;17.44;72.17;98859.41;334663;28;17786;-74
2023/08/29 00:53:19;;;;;;;1.27;0.80;;;;;;;17.47;72.17;98867.06;334733;28;17950;-73
2023/08/29 00:53:35;;;;;;;1.20;0.80;;;;;;;17.49;72.14;98859.09;335983;28;4655;-76
2023/08/29 00:53:47;;;;;;;1.08;0.90;;;;;;;17.49;71.78;98859.91;334358;28;17750;-77
2023/08/29 00:54:00;;;;;;;0.95;0.90;;;;;;;17.51;71.94;98863.25;334594;28;18174;-77
2023/08/29 00:54:15;;;;;;;0.82;0.80;;;;;;;17.53;71.95;98861.38;337409;28;5144;-77
2023/08/29 00:54:27;;;;;;;0.93;0.80;;;;;;;17.54;71.78;98862.19;333791;28;18154;-77
2023/08/29 00:54:40;;;;;;;1.10;0.90;;;;;;;17.53;71.97;98861.38;333410;28;4770;-77
2023/08/29 00:54:52;;;;;;;1.00;0.90;;;;;;;17.52;72.11;98859.66;338517;28;4702;-76
2023/08/29 00:55:04;;;;;;;0.82;0.82;;;;;;;17.52;71.95;98862.28;339769;28;4530;-77
2023/08/29 00:55:16;;;;;;;1.00;0.90;;;;;;;17.51;71.85;98863.25;337430;28;17923;-77
2023/08/29 00:55:29;;;;;;;1.38;1.02;;;;;;;17.47;71.59;98859.19;340158;28;4523;-77
2023/08/29 00:55:41;;;;;;;1.40;1.08;;;;;;;17.46;71.49;98860.13;335128;28;17930;-77
2023/08/29 00:55:55;;;;;;;1.20;0.90;;;;;;;17.48;71.54;98862.66;339109;28;5336;-76
2023/08/29 00:56:07;;;;;;;1.25;1.00;;;;;;;17.46;71.51;98860.13;336848;28;18100;-77
2023/08/29 00:56:19;;;;;;;1.00;0.90;;;;;;;17.47;71.63;98866.25;339150;28;4772;-77
2023/08/29 00:56:31;;;;;;;1.10;1.00;;;;;;;17.45;71.52;98858.47;336375;28;17954;-77
2023/08/29 00:56:43;;;;;;;1.60;1.00;;;;;;;17.47;71.62;98861.81;338533;28;5576;-77
2023/08/29 00:56:55;;;;;;;1.60;0.95;;;;;;;17.45;71.62;98863.72;337088;28;17927;-77
2023/08/29 00:57:08;;;;;;;1.92;0.75;;;;;;;17.47;71.68;98866.25;340403;28;4931;-74
2023/08/29 00:57:20;;;;;;;4.10;1.05;;;;;;;17.47;71.43;98866.25;336958;28;11410;-74
2023/08/29 00:57:32;;;;;;;4.10;1.20;;;;;;;17.47;71.37;98864.44;340091;28;4503;-74
2023/08/29 00:57:44;;;;;;;1.20;1.10;;;;;;;17.49;71.46;98867.78;339881;28;5307;-75
2023/08/29 00:57:56;;;;;;;0.80;0.75;;;;;;;17.50;71.53;98861.56;336963;28;17336;-75
2023/08/29 00:58:08;;;;;;;1.25;0.98;;;;;;;17.50;72.00;98856.31;339940;28;4614;-74
2023/08/29 00:58:20;;;;;;;1.58;1.15;;;;;;;17.50;71.89;98866.00;337279;28;11774;-73
2023/08/29 00:58:34;;;;;;;1.30;1.10;;;;;;;17.49;71.80;98867.78;340507;28;4527;-74
2023/08/29 00:58:46;;;;;;;1.15;0.98;;;;;;;17.49;71.95;98859.91;336845;28;11930;-73
2023/08/29 00:59:00;;;;;;;1.17;1.00;;;;;;;17.50;71.37;98869.44;339830;28;4631;-75
2023/08/29 00:59:12;;;;;;;1.58;0.93;;;;;;;17.48;71.54;98865.28;335849;28;17915;-75
2023/08/29 00:59:25;;;;;;;1.55;0.85;;;;;;;17.49;71.57;98866.97;338879;28;5254;-75
2023/08/29 00:59:37;;;;;;;1.60;0.90;;;;;;;17.49;71.57;98859.09;333067;28;18228;-75
2023/08/29 00:59:49;;;;;;;1.10;0.82;;;;;;;17.50;71.66;98866.81;338472;28;4790;-75
2023/08/29 01:00:03;;;;;;;1.45;1.00;;;;;;;17.51;72.11;98868.53;334249;28;18757;-75